createdAt,value
2022-11-20T00:01:42.894Z,13.32
2022-11-20T00:04:09.561Z,13.35
2022-11-20T00:06:35.834Z,13.05
2022-11-20T00:09:02.659Z,11.00
2022-11-20T00:11:30.123Z,12.45
2022-11-20T00:13:58.125Z,12.10
2022-11-20T00:16:25.363Z,13.07
2022-11-20T00:18:52.099Z,12.50
2022-11-20T00:21:19.990Z,13.38
2022-11-20T00:23:48.957Z,12.57
2022-11-20T00:26:16.094Z,11.68
2022-11-20T00:28:43.936Z,12.70
2022-11-20T00:31:13.671Z,12.57
2022-11-20T00:33:40.137Z,13.52
2022-11-20T00:36:07.794Z,13.85
2022-11-20T00:38:34.406Z,12.27
2022-11-20T00:41:01.955Z,12.73
2022-11-20T00:43:28.602Z,12.68
2022-11-20T00:46:01.699Z,11.57
2022-11-20T00:48:28.493Z,11.73
2022-11-20T00:50:55.101Z,13.25
2022-11-20T00:53:21.420Z,12.45
2022-11-20T00:55:54.419Z,12.43
2022-11-20T00:58:20.699Z,12.35
2022-11-20T01:00:47.052Z,13.35
2022-11-20T01:03:13.618Z,12.52
2022-11-20T01:05:39.903Z,11.35
2022-11-20T01:08:06.199Z,12.60
2022-11-20T01:10:32.460Z,11.43
2022-11-20T01:13:20.368Z,12.30
2022-11-20T01:15:50.696Z,11.65
2022-11-20T01:18:16.948Z,12.43
2022-11-20T01:20:43.715Z,12.88
2022-11-20T01:23:09.962Z,11.48
2022-11-20T01:25:36.275Z,12.38
2022-11-20T01:28:02.634Z,11.88
2022-11-20T01:30:29.227Z,11.50
2022-11-20T01:32:56.158Z,11.57
2022-11-20T01:35:22.416Z,13.43
2022-11-20T01:37:48.716Z,13.55
2022-11-20T01:40:14.953Z,13.23
2022-11-20T01:43:04.087Z,13.05
2022-11-20T01:45:48.849Z,10.68
2022-11-20T01:48:15.628Z,13.73
2022-11-20T01:50:42.674Z,12.93
2022-11-20T01:53:10.910Z,11.43
2022-11-20T01:55:40.638Z,11.85
2022-11-20T01:58:07.043Z,12.80
2022-11-20T02:00:33.653Z,12.43
2022-11-20T02:03:02.516Z,11.20
2022-11-20T02:05:28.793Z,16.30
2022-11-20T02:07:57.094Z,15.85
2022-11-20T02:10:23.565Z,15.32
2022-11-20T02:13:08.385Z,14.60
2022-11-20T02:15:34.707Z,12.27
2022-11-20T02:18:00.940Z,12.07
2022-11-20T02:20:27.263Z,12.68
2022-11-20T02:22:58.793Z,10.93
2022-11-20T02:25:25.848Z,10.77
2022-11-20T02:27:52.190Z,12.13
2022-11-20T02:30:18.693Z,11.20
2022-11-20T02:32:45.098Z,11.32
2022-11-20T02:35:32.397Z,11.27
2022-11-20T02:38:00.152Z,9.93
2022-11-20T02:40:26.890Z,12.02
2022-11-20T02:42:56.915Z,11.27
2022-11-20T02:45:23.974Z,10.85
2022-11-20T02:47:50.384Z,11.02
2022-11-20T02:50:16.814Z,11.52
2022-11-20T02:52:43.652Z,11.88
2022-11-20T02:55:10.668Z,11.30
2022-11-20T02:57:37.027Z,11.82
2022-11-20T03:00:04.290Z,11.55
2022-11-20T03:02:31.081Z,11.43
2022-11-20T03:04:57.379Z,11.80
2022-11-20T03:07:23.703Z,11.57
2022-11-20T03:09:50.026Z,11.50
2022-11-20T03:12:16.259Z,11.98
2022-11-20T03:14:42.694Z,10.77
2022-11-20T03:17:09.029Z,11.52
2022-11-20T03:19:35.370Z,11.43
2022-11-20T03:22:01.669Z,11.45
2022-11-20T03:24:28.244Z,11.35
2022-11-20T03:26:54.579Z,10.68
2022-11-20T03:29:21.104Z,10.60
2022-11-20T03:31:47.783Z,10.68
2022-11-20T03:34:14.566Z,10.80
2022-11-20T03:36:41.700Z,11.25
2022-11-20T03:39:08.252Z,11.32
2022-11-20T03:41:38.529Z,11.13
2022-11-20T03:44:05.666Z,11.80
2022-11-20T03:46:32.205Z,11.20
2022-11-20T03:48:58.570Z,11.35
2022-11-20T03:51:26.153Z,10.95
2022-11-20T03:53:53.512Z,9.85
2022-11-20T03:56:20.666Z,11.10
2022-11-20T03:58:46.896Z,11.75
2022-11-20T04:01:17.570Z,11.63
2022-11-20T04:03:44.466Z,11.02
2022-11-20T04:06:15.200Z,10.10
2022-11-20T04:08:42.902Z,11.13
2022-11-20T04:11:19.406Z,10.63
2022-11-20T04:13:50.119Z,10.48
2022-11-20T04:16:16.746Z,12.23
2022-11-20T04:18:44.209Z,11.87
2022-11-20T04:21:10.802Z,10.73
2022-11-20T04:23:37.131Z,11.30
2022-11-20T04:26:05.122Z,10.63
2022-11-20T04:28:31.541Z,11.18
2022-11-20T04:31:08.142Z,11.35
2022-11-20T04:33:34.957Z,9.82
2022-11-20T04:36:02.777Z,11.32
2022-11-20T04:38:29.137Z,11.10
2022-11-20T04:40:59.780Z,11.38
2022-11-20T04:43:26.217Z,10.82
2022-11-20T04:45:56.092Z,11.02
2022-11-20T04:48:22.778Z,9.90
2022-11-20T04:50:49.098Z,10.52
2022-11-20T04:53:15.737Z,9.90
2022-11-20T04:55:42.898Z,10.55
2022-11-20T04:58:09.327Z,10.60
2022-11-20T05:00:35.757Z,11.07
2022-11-20T05:03:02.184Z,10.32
2022-11-20T05:05:28.518Z,10.00
2022-11-20T05:07:56.935Z,10.82
2022-11-20T05:10:23.239Z,10.82
2022-11-20T05:12:49.545Z,11.05
2022-11-20T05:15:16.168Z,11.05
2022-11-20T05:17:47.675Z,10.65
2022-11-20T05:20:14.036Z,10.65
2022-11-20T05:22:40.729Z,11.02
2022-11-20T05:25:07.161Z,11.50
2022-11-20T05:27:33.454Z,10.93
2022-11-20T05:29:59.718Z,10.57
2022-11-20T05:32:26.405Z,10.77
2022-11-20T05:34:53.445Z,11.60
2022-11-20T05:37:19.730Z,11.82
2022-11-20T05:39:46.029Z,12.00
2022-11-20T05:42:31.055Z,11.85
2022-11-20T05:44:57.830Z,10.88
2022-11-20T05:47:24.110Z,10.77
2022-11-20T05:49:50.365Z,11.98
2022-11-20T05:52:16.694Z,11.43
2022-11-20T05:54:43.053Z,10.55
2022-11-20T05:57:09.346Z,10.52
2022-11-20T05:59:35.570Z,11.48
2022-11-20T06:02:01.883Z,11.57
2022-11-20T06:04:28.261Z,11.60
2022-11-20T06:06:54.530Z,11.55
2022-11-20T06:09:21.089Z,10.80
2022-11-20T06:11:47.546Z,11.68
2022-11-20T06:14:13.853Z,10.98
2022-11-20T06:16:40.096Z,10.85
2022-11-20T06:19:06.542Z,11.43
2022-11-20T06:21:32.868Z,11.05
2022-11-20T06:23:59.098Z,11.45
2022-11-20T06:26:27.271Z,11.80
2022-11-20T06:28:54.393Z,12.05
2022-11-20T06:31:22.061Z,11.40
2022-11-20T06:33:49.000Z,12.00
2022-11-20T06:36:15.973Z,11.65
2022-11-20T06:38:42.995Z,12.07
2022-11-20T06:41:19.342Z,11.07
2022-11-20T06:43:45.784Z,12.00
2022-11-20T06:46:12.906Z,11.95
2022-11-20T06:48:39.238Z,11.60
2022-11-20T06:51:06.262Z,10.87
2022-11-20T06:53:32.667Z,12.07
2022-11-20T06:55:58.973Z,11.82
2022-11-20T06:58:27.806Z,10.98
2022-11-20T07:00:54.208Z,11.90
2022-11-20T07:03:20.775Z,10.80
2022-11-20T07:05:47.154Z,11.88
2022-11-20T07:08:13.415Z,11.63
2022-11-20T07:10:39.758Z,11.45
2022-11-20T07:13:07.815Z,11.35
2022-11-20T07:15:34.055Z,10.77
2022-11-20T07:18:00.858Z,11.18
2022-11-20T07:20:27.425Z,10.43
2022-11-20T07:22:57.769Z,11.38
2022-11-20T07:25:24.767Z,11.73
2022-11-20T07:27:51.005Z,11.15
2022-11-20T07:30:17.662Z,10.32
2022-11-20T07:32:46.887Z,12.18
2022-11-20T07:35:13.195Z,9.95
2022-11-20T07:37:39.499Z,11.98
2022-11-20T07:40:05.851Z,10.98
2022-11-20T07:42:32.194Z,12.07
2022-11-20T07:44:58.413Z,11.25
2022-11-20T07:47:24.740Z,11.38
2022-11-20T07:49:50.992Z,10.45
2022-11-20T07:52:17.250Z,10.88
2022-11-20T07:54:43.528Z,10.73
2022-11-20T07:57:09.835Z,10.93
2022-11-20T07:59:36.198Z,10.93
2022-11-20T08:02:02.532Z,11.88
2022-11-20T08:04:28.790Z,12.15
2022-11-20T08:06:55.056Z,12.07
2022-11-20T08:09:21.670Z,11.23
2022-11-20T08:12:06.901Z,12.18
2022-11-20T08:14:33.249Z,11.13
2022-11-20T08:17:00.260Z,12.10
2022-11-20T08:19:26.551Z,11.02
2022-11-20T08:21:52.842Z,11.20
2022-11-20T08:24:19.217Z,11.85
2022-11-20T08:26:45.509Z,12.32
2022-11-20T08:29:12.107Z,12.20
2022-11-20T08:31:38.475Z,11.70
2022-11-20T08:34:08.888Z,13.02
2022-11-20T08:36:37.163Z,12.05
2022-11-20T08:39:03.958Z,12.18
2022-11-20T08:41:32.644Z,12.35
2022-11-20T08:44:02.855Z,12.88
2022-11-20T08:46:33.933Z,11.77
2022-11-20T08:49:00.462Z,12.43
2022-11-20T08:51:26.840Z,12.50
2022-11-20T08:53:53.129Z,11.60
2022-11-20T08:56:19.532Z,12.85
2022-11-20T08:59:16.116Z,13.15
2022-11-20T09:01:32.395Z,12.25
2022-11-20T09:03:58.883Z,11.38
2022-11-20T09:06:25.155Z,13.52
2022-11-20T09:08:54.923Z,12.25
2022-11-20T09:11:21.664Z,12.00
2022-11-20T09:13:48.051Z,12.65
2022-11-20T09:16:14.363Z,12.60
2022-11-20T09:18:40.815Z,12.88
2022-11-20T09:21:08.201Z,12.80
2022-11-20T09:23:35.903Z,12.52
2022-11-20T09:26:03.070Z,12.98
2022-11-20T09:28:29.380Z,13.43
2022-11-20T09:30:55.819Z,12.68
2022-11-20T09:33:22.107Z,12.40
2022-11-20T09:35:48.523Z,12.02
2022-11-20T09:38:15.526Z,13.70
2022-11-20T09:40:46.197Z,13.93
2022-11-20T09:43:15.377Z,13.85
2022-11-20T09:46:00.482Z,13.57
2022-11-20T09:48:46.388Z,13.87
2022-11-20T09:51:36.524Z,13.38
2022-11-20T09:54:16.570Z,14.50
2022-11-20T09:56:49.901Z,12.85
2022-11-20T09:59:27.225Z,13.48
2022-11-20T10:01:54.734Z,13.38
2022-11-20T10:04:21.727Z,14.75
2022-11-20T10:06:59.632Z,12.40
2022-11-20T10:09:33.205Z,13.55
2022-11-20T10:12:05.255Z,13.60
2022-11-20T10:14:40.925Z,13.80
2022-11-20T10:21:59.727Z,13.23
2022-11-20T10:24:37.918Z,13.15
2022-11-20T10:27:13.260Z,14.35
2022-11-20T10:29:41.988Z,13.68
2022-11-20T10:32:19.746Z,13.73
2022-11-20T10:34:58.243Z,14.98
2022-11-20T10:37:26.084Z,15.27
2022-11-20T10:40:11.164Z,15.05
2022-11-20T10:42:54.798Z,14.15
2022-11-20T10:45:33.729Z,13.45
2022-11-20T10:48:15.343Z,15.05
2022-11-20T10:50:47.684Z,16.08
2022-11-20T10:53:20.058Z,13.85
2022-11-20T10:55:49.711Z,15.13
2022-11-20T10:58:26.790Z,13.23
2022-11-20T11:00:53.118Z,16.45
2022-11-20T11:03:22.197Z,15.45
2022-11-20T11:05:51.452Z,16.35
2022-11-20T11:08:18.759Z,15.77
2022-11-20T11:11:05.280Z,14.85
2022-11-20T11:13:31.970Z,16.90
2022-11-20T11:15:58.812Z,16.50
2022-11-20T11:18:32.731Z,16.15
2022-11-20T11:21:00.822Z,16.75
2022-11-20T11:23:33.000Z,17.25
2022-11-20T11:26:00.090Z,18.83
2022-11-20T11:28:28.413Z,17.50
2022-11-20T11:30:55.119Z,18.60
2022-11-20T11:33:21.464Z,18.70
2022-11-20T11:35:51.396Z,17.10
2022-11-20T11:38:20.408Z,17.77
2022-11-20T11:40:47.664Z,20.67
2022-11-20T11:43:38.657Z,18.75
2022-11-20T11:46:08.907Z,17.25
2022-11-20T11:48:35.180Z,19.00
2022-11-20T11:51:01.423Z,18.98
2022-11-20T11:53:28.087Z,18.95
2022-11-20T11:55:59.630Z,17.90
2022-11-20T11:58:28.712Z,19.40
2022-11-20T12:00:57.783Z,18.73
2022-11-20T12:03:28.017Z,20.23
2022-11-20T12:06:11.286Z,21.85
2022-11-20T12:08:56.097Z,21.25
2022-11-20T12:11:41.422Z,22.08
2022-11-20T12:14:20.706Z,21.63
2022-11-20T12:16:47.244Z,20.13
2022-11-20T12:19:14.435Z,22.02
2022-11-20T12:21:43.509Z,21.83
2022-11-20T12:24:28.739Z,20.85
2022-11-20T12:27:04.999Z,20.20
2022-11-20T12:29:46.375Z,22.52
2022-11-20T12:32:15.841Z,21.98
2022-11-20T12:34:52.328Z,22.92
2022-11-20T12:37:21.625Z,21.88
2022-11-20T12:39:51.538Z,22.50
2022-11-20T12:42:39.616Z,21.48
2022-11-20T12:45:15.312Z,22.13
2022-11-20T12:50:23.763Z,20.58
2022-11-20T12:53:05.435Z,21.65
2022-11-20T12:55:37.682Z,20.70
2022-11-20T12:58:13.260Z,21.35
2022-11-20T13:00:41.490Z,20.58
2022-11-20T13:03:17.688Z,20.98
2022-11-20T13:05:49.789Z,22.10
2022-11-20T13:08:20.930Z,23.75
2022-11-20T13:10:51.801Z,22.25
2022-11-20T13:13:27.310Z,23.85
2022-11-20T13:16:16.851Z,22.52
2022-11-20T13:18:46.113Z,21.58
2022-11-20T13:21:16.662Z,21.48
2022-11-20T13:23:43.275Z,22.98
2022-11-20T13:26:36.124Z,23.15
2022-11-20T13:29:08.794Z,23.17
2022-11-20T13:31:36.251Z,22.33
2022-11-20T13:34:04.192Z,23.40
2022-11-20T13:36:31.188Z,22.92
2022-11-20T13:38:57.592Z,23.42
2022-11-20T13:41:32.321Z,24.00
2022-11-20T13:44:10.979Z,24.37
2022-11-20T13:46:38.700Z,21.50
2022-11-20T13:49:09.468Z,22.35
2022-11-20T13:51:38.846Z,22.52
2022-11-20T13:54:05.244Z,22.33
2022-11-20T13:56:50.318Z,23.40
2022-11-20T13:59:41.182Z,22.23
2022-11-20T14:02:12.209Z,23.08
2022-11-20T14:04:42.972Z,21.98
2022-11-20T14:07:10.167Z,22.95
2022-11-20T14:09:36.566Z,22.88
2022-11-20T14:12:03.636Z,23.70
2022-11-20T14:14:30.937Z,22.15
2022-11-20T14:17:17.930Z,24.17
2022-11-20T14:19:45.140Z,22.90
2022-11-20T14:22:18.630Z,23.02
2022-11-20T14:24:45.263Z,22.70
2022-11-20T14:27:16.380Z,22.13
2022-11-20T14:29:43.690Z,22.10
2022-11-20T14:32:10.296Z,22.90
2022-11-20T14:34:38.635Z,22.40
2022-11-20T14:37:06.478Z,22.17
2022-11-20T14:39:36.534Z,22.73
2022-11-20T14:42:03.108Z,22.73
2022-11-20T14:44:33.577Z,24.42
2022-11-20T14:47:01.354Z,22.67
2022-11-20T14:49:30.271Z,22.83
2022-11-20T14:52:00.745Z,23.90
2022-11-20T14:54:28.026Z,22.15
2022-11-20T14:56:55.476Z,22.50
2022-11-20T14:59:25.596Z,21.75
2022-11-20T15:01:58.837Z,23.13
2022-11-20T15:04:25.548Z,23.92
2022-11-20T15:06:53.476Z,23.08
2022-11-20T15:09:19.846Z,24.02
2022-11-20T15:11:56.918Z,25.42
2022-11-20T15:14:24.404Z,24.90
2022-11-20T15:16:51.409Z,25.85
2022-11-20T15:19:19.523Z,24.60
2022-11-20T15:21:45.830Z,23.52
2022-11-20T15:24:12.324Z,26.40
2022-11-20T15:26:38.840Z,26.15
2022-11-20T15:29:05.167Z,27.50
2022-11-20T15:31:31.492Z,25.30
2022-11-20T15:33:57.956Z,26.00
2022-11-20T15:36:24.237Z,25.25
2022-11-20T15:38:50.561Z,27.55
2022-11-20T15:41:16.908Z,23.98
2022-11-20T15:43:43.230Z,24.98
2022-11-20T15:46:14.305Z,26.48
2022-11-20T15:48:48.359Z,25.13
2022-11-20T15:51:33.564Z,24.80
2022-11-20T15:54:00.219Z,25.83
2022-11-20T15:56:26.885Z,24.30
2022-11-20T15:58:53.184Z,25.88
2022-11-20T16:01:21.370Z,24.08
2022-11-20T16:03:48.280Z,26.33
2022-11-20T16:06:14.859Z,24.55
2022-11-20T16:08:41.489Z,24.92
2022-11-20T16:11:07.884Z,25.88
2022-11-20T16:13:52.649Z,24.90
2022-11-20T16:16:21.757Z,24.85
2022-11-20T16:18:48.311Z,25.98
2022-11-20T16:21:14.617Z,23.73
2022-11-20T16:23:41.553Z,24.90
2022-11-20T16:26:15.060Z,24.13
2022-11-20T16:28:42.301Z,24.17
2022-11-20T16:31:12.357Z,23.65
2022-11-20T16:33:38.855Z,22.60
2022-11-20T16:36:15.902Z,26.50
2022-11-20T16:38:43.313Z,24.63
2022-11-20T16:41:15.687Z,25.85
2022-11-20T16:44:01.415Z,21.48
2022-11-20T16:46:29.664Z,25.67
2022-11-20T16:48:57.141Z,24.42
2022-11-20T16:51:24.212Z,21.88
2022-11-20T16:53:50.997Z,23.58
2022-11-20T16:56:18.385Z,25.70
2022-11-20T16:58:45.658Z,25.02
2022-11-20T17:01:14.006Z,25.35
2022-11-20T17:03:41.495Z,24.65
2022-11-20T17:06:14.376Z,24.13
2022-11-20T17:08:41.401Z,24.42
2022-11-20T17:11:08.711Z,24.65
2022-11-20T17:13:39.710Z,25.00
2022-11-20T17:16:07.934Z,26.17
2022-11-20T17:18:34.228Z,26.05
2022-11-20T17:21:04.482Z,24.40
2022-11-20T17:23:34.291Z,28.35
2022-11-20T17:26:02.162Z,28.45
2022-11-20T17:28:28.538Z,26.15
2022-11-20T17:30:58.945Z,26.08
2022-11-20T17:33:25.254Z,25.33
2022-11-20T17:35:51.818Z,23.95
2022-11-20T17:38:18.040Z,24.27
2022-11-20T17:40:44.364Z,24.08
2022-11-20T17:43:11.030Z,25.95
2022-11-20T17:45:37.449Z,25.85
2022-11-20T17:48:04.110Z,25.60
2022-11-20T17:50:30.946Z,24.85
2022-11-20T17:52:57.301Z,26.08
2022-11-20T17:55:23.577Z,26.63
2022-11-20T17:57:52.618Z,25.50
2022-11-20T18:00:19.795Z,24.88
2022-11-20T18:02:46.150Z,24.90
2022-11-20T18:05:12.607Z,23.90
2022-11-20T18:07:41.825Z,25.75
2022-11-20T18:10:08.916Z,26.13
2022-11-20T18:12:35.189Z,24.17
2022-11-20T18:15:01.496Z,25.20
2022-11-20T18:17:27.839Z,24.63
2022-11-20T18:20:26.812Z,24.00
2022-11-20T18:22:40.459Z,23.15
2022-11-20T18:25:07.292Z,24.20
2022-11-20T18:27:33.556Z,23.55
2022-11-20T18:29:59.884Z,24.67
2022-11-20T18:32:26.156Z,23.92
2022-11-20T18:34:53.857Z,23.65
2022-11-20T18:37:20.197Z,24.45
2022-11-20T18:39:46.531Z,24.60
2022-11-20T18:42:32.829Z,25.33
2022-11-20T18:47:30.733Z,21.60
2022-11-20T18:49:57.842Z,25.00
2022-11-20T18:52:27.257Z,23.65
2022-11-20T18:54:54.136Z,24.08
2022-11-20T18:57:21.363Z,22.88
2022-11-20T18:59:47.880Z,24.05
2022-11-20T19:02:15.332Z,23.48
2022-11-20T19:04:42.596Z,24.35
2022-11-20T19:07:12.494Z,24.48
2022-11-20T19:09:39.825Z,24.92
2022-11-20T19:12:07.845Z,24.05
2022-11-20T19:14:34.532Z,24.58
2022-11-20T19:17:00.918Z,22.85
2022-11-20T19:19:27.359Z,24.17
2022-11-20T19:21:53.993Z,25.27
2022-11-20T19:24:20.505Z,22.83
2022-11-20T19:26:46.809Z,25.13
2022-11-20T19:29:15.429Z,24.25
2022-11-20T19:31:42.525Z,24.35
2022-11-20T19:34:09.114Z,24.75
2022-11-20T19:36:44.539Z,24.42
2022-11-20T19:39:12.524Z,22.88
2022-11-20T19:41:39.810Z,24.35
2022-11-20T19:44:10.467Z,24.05
2022-11-20T19:46:37.623Z,24.73
2022-11-20T19:49:04.612Z,25.02
2022-11-20T19:51:32.294Z,25.02
2022-11-20T19:53:59.525Z,22.83
2022-11-20T19:56:26.677Z,22.02
2022-11-20T19:58:53.532Z,24.63
2022-11-20T20:01:21.052Z,23.17
2022-11-20T20:03:47.709Z,23.08
2022-11-20T20:06:15.185Z,23.33
2022-11-20T20:08:42.636Z,22.90
2022-11-20T20:11:18.068Z,23.15
2022-11-20T20:13:46.188Z,22.83
2022-11-20T20:16:13.573Z,24.02
2022-11-20T20:18:40.109Z,21.92
2022-11-20T20:21:08.019Z,21.67
2022-11-20T20:23:35.439Z,22.27
2022-11-20T20:26:03.851Z,24.15
2022-11-20T20:28:30.400Z,23.73
2022-11-20T20:30:57.060Z,24.35
2022-11-20T20:33:23.389Z,22.85
2022-11-20T20:35:50.018Z,24.58
2022-11-20T20:38:16.374Z,25.42
2022-11-20T20:40:46.673Z,24.45
2022-11-20T20:43:13.583Z,22.90
2022-11-20T20:45:44.954Z,24.55
2022-11-20T20:48:11.291Z,24.80
2022-11-20T20:50:38.639Z,23.85
2022-11-20T20:53:05.208Z,25.25
2022-11-20T20:55:33.700Z,23.67
2022-11-20T20:58:00.102Z,23.33
2022-11-20T21:00:26.354Z,24.05
2022-11-20T21:02:52.673Z,26.40
2022-11-20T21:05:18.980Z,23.92
2022-11-20T21:08:04.047Z,22.35
2022-11-20T21:10:31.202Z,24.92
2022-11-20T21:12:57.480Z,23.52
2022-11-20T21:15:23.814Z,25.15
2022-11-20T21:17:50.525Z,23.40
2022-11-20T21:20:35.595Z,23.50
2022-11-20T21:23:07.726Z,22.05
2022-11-20T21:25:36.141Z,25.85
2022-11-20T21:28:02.430Z,25.38
2022-11-20T21:30:28.659Z,25.88
2022-11-20T21:32:55.320Z,24.73
2022-11-20T21:35:21.653Z,22.92
2022-11-20T21:37:47.962Z,25.80
2022-11-20T21:40:14.212Z,26.35
2022-11-20T21:42:43.514Z,26.50
2022-11-20T21:45:09.845Z,26.10
2022-11-20T21:47:36.254Z,25.38
2022-11-20T21:50:02.612Z,24.60
2022-11-20T21:52:28.968Z,25.40
2022-11-20T21:54:55.212Z,25.92
2022-11-20T21:57:21.444Z,25.42
2022-11-20T21:59:47.773Z,27.08
2022-11-20T22:02:14.011Z,24.45
2022-11-20T22:04:40.374Z,27.10
2022-11-20T22:07:06.704Z,27.10
2022-11-20T22:09:33.519Z,26.27
2022-11-20T22:11:59.818Z,27.70
2022-11-20T22:14:26.345Z,27.15
2022-11-20T22:16:53.490Z,25.85
2022-11-20T22:19:20.661Z,27.02
2022-11-20T22:21:47.239Z,26.27
2022-11-20T22:24:14.640Z,26.08
2022-11-20T22:26:41.788Z,26.60
2022-11-20T22:29:08.388Z,27.15
2022-11-20T22:31:34.721Z,28.98
2022-11-20T22:34:01.925Z,26.80
2022-11-20T22:36:29.102Z,26.88
2022-11-20T22:38:55.698Z,27.92
2022-11-20T22:41:27.144Z,26.98
2022-11-20T22:43:55.007Z,27.00
2022-11-20T22:46:21.318Z,26.48
2022-11-20T22:48:52.006Z,26.77
2022-11-20T22:51:20.231Z,27.75
2022-11-20T22:53:46.973Z,28.30
2022-11-20T22:56:14.051Z,26.25
2022-11-20T22:58:41.817Z,28.40
2022-11-20T23:01:09.179Z,27.65
2022-11-20T23:03:35.522Z,28.95
2022-11-20T23:06:02.005Z,26.67
2022-11-20T23:08:28.469Z,27.30
2022-11-20T23:11:01.368Z,28.20
2022-11-20T23:13:28.162Z,26.63
2022-11-20T23:15:55.248Z,27.88
2022-11-20T23:18:21.709Z,27.58
2022-11-20T23:20:48.105Z,24.77
2022-11-20T23:23:14.359Z,25.17
2022-11-20T23:25:40.637Z,26.10
2022-11-20T23:28:06.963Z,25.35
2022-11-20T23:30:33.209Z,25.15
2022-11-20T23:32:59.458Z,25.48
2022-11-20T23:35:25.752Z,24.23
2022-11-20T23:37:52.061Z,24.35
2022-11-20T23:40:18.371Z,26.05
2022-11-20T23:43:04.594Z,25.48
2022-11-20T23:45:30.843Z,26.10
2022-11-20T23:47:57.144Z,27.17
2022-11-20T23:50:23.445Z,24.83
2022-11-20T23:52:49.743Z,24.55
2022-11-20T23:55:16.399Z,26.02
2022-11-20T23:57:42.813Z,26.63
